sensor_id;sensor_type;location;lat;lon;timestamp;pressure;altitude;pressure_sealevel;temperature;humidity
71384;BME280;61466;52.166;5.004;2022-11-20T00:01:44;101493.72;;;-0.02;62.29
71384;BME280;61466;52.166;5.004;2022-11-20T00:04:10;101514.03;;;0.05;62.48
71384;BME280;61466;52.166;5.004;2022-11-20T00:06:36;101507.03;;;-0.03;62.24
71384;BME280;61466;52.166;5.004;2022-11-20T00:09:02;101449.16;;;-0.41;62.23
71384;BME280;61466;52.166;5.004;2022-11-20T00:11:29;101494.47;;;-0.16;62.07
71384;BME280;61466;52.166;5.004;2022-11-20T00:13:57;101507.56;;;-0.08;62.16
71384;BME280;61466;52.166;5.004;2022-11-20T00:16:24;101512.00;;;-0.08;62.47
71384;BME280;61466;52.166;5.004;2022-11-20T00:18:50;101501.72;;;-0.18;62.27
71384;BME280;61466;52.166;5.004;2022-11-20T00:21:22;101506.50;;;-0.22;62.22
71384;BME280;61466;52.166;5.004;2022-11-20T00:23:50;101498.34;;;-0.27;62.61
71384;BME280;61466;52.166;5.004;2022-11-20T00:26:17;101496.88;;;-0.29;62.48
71384;BME280;61466;52.166;5.004;2022-11-20T00:28:49;101487.00;;;-0.27;62.85
71384;BME280;61466;52.166;5.004;2022-11-20T00:31:16;101494.91;;;-0.27;62.75
71384;BME280;61466;52.166;5.004;2022-11-20T00:33:43;101475.84;;;-0.29;62.44
71384;BME280;61466;52.166;5.004;2022-11-20T00:36:11;101455.53;;;-0.35;62.56
71384;BME280;61466;52.166;5.004;2022-11-20T00:38:38;101482.50;;;-0.18;62.63
71384;BME280;61466;52.166;5.004;2022-11-20T00:41:06;101485.31;;;-0.20;62.94
71384;BME280;61466;52.166;5.004;2022-11-20T00:43:32;101453.72;;;-0.35;62.25
71384;BME280;61466;52.166;5.004;2022-11-20T00:45:58;101458.00;;;-0.34;62.64
71384;BME280;61466;52.166;5.004;2022-11-20T00:48:25;101475.50;;;-0.26;62.54
71384;BME280;61466;52.166;5.004;2022-11-20T00:50:51;101443.09;;;-0.42;63.03
71384;BME280;61466;52.166;5.004;2022-11-20T00:53:16;101472.94;;;-0.34;62.38
71384;BME280;61466;52.166;5.004;2022-11-20T00:55:42;101475.38;;;-0.33;62.88
71384;BME280;61466;52.166;5.004;2022-11-20T00:58:07;101462.84;;;-0.46;62.63
71384;BME280;61466;52.166;5.004;2022-11-20T01:00:33;101475.59;;;-0.34;63.00
71384;BME280;61466;52.166;5.004;2022-11-20T01:02:59;101482.47;;;-0.33;62.24
71384;BME280;61466;52.166;5.004;2022-11-20T01:05:25;101484.91;;;-0.32;62.64
71384;BME280;61466;52.166;5.004;2022-11-20T01:07:51;101455.84;;;-0.53;62.62
71384;BME280;61466;52.166;5.004;2022-11-20T01:10:16;101478.59;;;-0.46;62.83
71384;BME280;61466;52.166;5.004;2022-11-20T01:12:42;101466.69;;;-0.56;62.93
71384;BME280;61466;52.166;5.004;2022-11-20T01:15:08;101465.22;;;-0.59;63.07
71384;BME280;61466;52.166;5.004;2022-11-20T01:17:33;101466.53;;;-0.55;63.01
71384;BME280;61466;52.166;5.004;2022-11-20T01:19:59;101468.63;;;-0.50;63.42
71384;BME280;61466;52.166;5.004;2022-11-20T01:22:25;101470.91;;;-0.47;63.01
71384;BME280;61466;52.166;5.004;2022-11-20T01:24:50;101466.00;;;-0.50;63.01
71384;BME280;61466;52.166;5.004;2022-11-20T01:27:16;101475.28;;;-0.39;63.29
71384;BME280;61466;52.166;5.004;2022-11-20T01:29:42;101467.75;;;-0.43;63.14
71384;BME280;61466;52.166;5.004;2022-11-20T01:32:07;101444.03;;;-0.57;63.37
71384;BME280;61466;52.166;5.004;2022-11-20T01:34:33;101462.19;;;-0.48;63.36
71384;BME280;61466;52.166;5.004;2022-11-20T01:36:59;101465.50;;;-0.54;63.05
71384;BME280;61466;52.166;5.004;2022-11-20T01:39:25;101464.91;;;-0.56;63.05
71384;BME280;61466;52.166;5.004;2022-11-20T01:41:54;101465.19;;;-0.51;63.01
71384;BME280;61466;52.166;5.004;2022-11-20T01:44:58;101473.41;;;-0.54;63.28
71384;BME280;61466;52.166;5.004;2022-11-20T01:47:38;101475.06;;;-0.53;63.39
71384;BME280;61466;52.166;5.004;2022-11-20T01:52:49;101450.22;;;-0.73;63.01
71384;BME280;61466;52.166;5.004;2022-11-20T01:55:28;101458.69;;;-0.63;63.57
71384;BME280;61466;52.166;5.004;2022-11-20T01:58:09;101451.50;;;-0.69;63.29
71384;BME280;61466;52.166;5.004;2022-11-20T02:00:35;101418.47;;;-0.87;63.17
71384;BME280;61466;52.166;5.004;2022-11-20T02:03:04;101449.53;;;-0.67;63.66
71384;BME280;61466;52.166;5.004;2022-11-20T02:05:41;101425.47;;;-0.79;63.67
71384;BME280;61466;52.166;5.004;2022-11-20T02:08:09;101440.28;;;-0.63;63.79
71384;BME280;61466;52.166;5.004;2022-11-20T02:10:35;101422.81;;;-0.71;63.91
71384;BME280;61466;52.166;5.004;2022-11-20T02:13:01;101435.03;;;-0.63;63.50
71384;BME280;61466;52.166;5.004;2022-11-20T02:15:46;101433.75;;;-0.67;63.63
71384;BME280;61466;52.166;5.004;2022-11-20T02:18:16;101444.84;;;-0.57;63.49
71384;BME280;61466;52.166;5.004;2022-11-20T02:20:44;101442.38;;;-0.58;63.80
71384;BME280;61466;52.166;5.004;2022-11-20T02:23:12;101438.16;;;-0.59;63.59
71384;BME280;61466;52.166;5.004;2022-11-20T02:25:42;101433.59;;;-0.66;63.27
71384;BME280;61466;52.166;5.004;2022-11-20T02:28:09;101444.22;;;-0.59;63.55
71384;BME280;61466;52.166;5.004;2022-11-20T02:30:35;101448.81;;;-0.61;63.41
71384;BME280;61466;52.166;5.004;2022-11-20T02:33:01;101422.84;;;-0.79;63.66
71384;BME280;61466;52.166;5.004;2022-11-20T02:37:55;101447.94;;;-0.76;63.59
71384;BME280;61466;52.166;5.004;2022-11-20T02:40:22;101422.78;;;-0.94;63.74
71384;BME280;61466;52.166;5.004;2022-11-20T02:42:51;101443.56;;;-0.84;63.76
71384;BME280;61466;52.166;5.004;2022-11-20T02:45:17;101425.75;;;-0.97;63.78
71384;BME280;61466;52.166;5.004;2022-11-20T02:47:43;101445.38;;;-0.85;63.76
71384;BME280;61466;52.166;5.004;2022-11-20T02:50:09;101416.25;;;-0.98;64.02
71384;BME280;61466;52.166;5.004;2022-11-20T02:52:34;101433.78;;;-0.90;64.27
71384;BME280;61466;52.166;5.004;2022-11-20T02:54:59;101424.13;;;-0.98;64.18
71384;BME280;61466;52.166;5.004;2022-11-20T02:57:25;101428.72;;;-1.00;64.16
71384;BME280;61466;52.166;5.004;2022-11-20T02:59:51;101441.50;;;-0.97;63.95
71384;BME280;61466;52.166;5.004;2022-11-20T03:02:17;101416.94;;;-1.04;63.97
71384;BME280;61466;52.166;5.004;2022-11-20T03:04:43;101357.91;;;-1.39;63.86
71384;BME280;61466;52.166;5.004;2022-11-20T03:07:09;101417.25;;;-0.99;64.03
71384;BME280;61466;52.166;5.004;2022-11-20T03:09:34;101405.13;;;-1.08;63.77
71384;BME280;61466;52.166;5.004;2022-11-20T03:12:00;101401.88;;;-1.10;64.19
71384;BME280;61466;52.166;5.004;2022-11-20T03:14:26;101362.28;;;-1.32;64.13
71384;BME280;61466;52.166;5.004;2022-11-20T03:16:52;101411.16;;;-0.99;63.77
71384;BME280;61466;52.166;5.004;2022-11-20T03:19:18;101401.19;;;-1.04;63.66
71384;BME280;61466;52.166;5.004;2022-11-20T03:21:44;101403.09;;;-0.98;63.89
71384;BME280;61466;52.166;5.004;2022-11-20T03:24:10;101417.84;;;-0.97;64.01
71384;BME280;61466;52.166;5.004;2022-11-20T03:26:35;101397.44;;;-1.10;63.96
71384;BME280;61466;52.166;5.004;2022-11-20T03:29:03;101415.94;;;-1.03;64.19
71384;BME280;61466;52.166;5.004;2022-11-20T03:31:31;101413.66;;;-1.06;64.19
71384;BME280;61466;52.166;5.004;2022-11-20T03:33:58;101378.34;;;-1.27;64.36
71384;BME280;61466;52.166;5.004;2022-11-20T03:36:26;101386.47;;;-1.13;64.54
71384;BME280;61466;52.166;5.004;2022-11-20T03:38:53;101401.53;;;-1.07;64.20
71384;BME280;61466;52.166;5.004;2022-11-20T03:41:21;101348.06;;;-1.37;64.14
71384;BME280;61466;52.166;5.004;2022-11-20T03:43:52;101373.38;;;-1.21;64.53
71384;BME280;61466;52.166;5.004;2022-11-20T03:46:19;101390.31;;;-1.24;64.64
71384;BME280;61466;52.166;5.004;2022-11-20T03:48:44;101385.59;;;-1.29;64.65
71384;BME280;61466;52.166;5.004;2022-11-20T03:51:19;101396.25;;;-1.30;64.60
71384;BME280;61466;52.166;5.004;2022-11-20T03:53:46;101360.47;;;-1.62;64.97
71384;BME280;61466;52.166;5.004;2022-11-20T03:56:13;101391.56;;;-1.43;65.04
71384;BME280;61466;52.166;5.004;2022-11-20T03:58:40;101380.13;;;-1.50;65.20
71384;BME280;61466;52.166;5.004;2022-11-20T04:01:12;101385.00;;;-1.47;65.48
71384;BME280;61466;52.166;5.004;2022-11-20T04:03:39;101383.72;;;-1.51;65.15
71384;BME280;61466;52.166;5.004;2022-11-20T04:06:08;101325.50;;;-1.86;65.29
71384;BME280;61466;52.166;5.004;2022-11-20T04:08:35;101332.03;;;-1.82;65.59
71384;BME280;61466;52.166;5.004;2022-11-20T04:11:30;101370.44;;;-1.50;65.81
71384;BME280;61466;52.166;5.004;2022-11-20T04:14:01;101374.34;;;-1.46;65.23
71384;BME280;61466;52.166;5.004;2022-11-20T04:16:30;101367.28;;;-1.45;65.19
71384;BME280;61466;52.166;5.004;2022-11-20T04:18:58;101351.78;;;-1.55;65.03
71384;BME280;61466;52.166;5.004;2022-11-20T04:21:24;101349.94;;;-1.54;65.36
71384;BME280;61466;52.166;5.004;2022-11-20T04:23:51;101346.69;;;-1.56;65.64
71384;BME280;61466;52.166;5.004;2022-11-20T04:26:19;101342.25;;;-1.56;65.61
71384;BME280;61466;52.166;5.004;2022-11-20T04:28:45;101335.06;;;-1.62;65.95
71384;BME280;61466;52.166;5.004;2022-11-20T04:31:12;101353.63;;;-1.40;64.98
71384;BME280;61466;52.166;5.004;2022-11-20T04:33:39;101343.94;;;-1.40;64.92
71384;BME280;61466;52.166;5.004;2022-11-20T04:36:07;101308.66;;;-1.60;64.36
71384;BME280;61466;52.166;5.004;2022-11-20T04:38:33;101324.00;;;-1.49;65.19
71384;BME280;61466;52.166;5.004;2022-11-20T04:41:01;101344.97;;;-1.41;65.00
71384;BME280;61466;52.166;5.004;2022-11-20T04:43:28;101332.69;;;-1.49;64.55
71384;BME280;61466;52.166;5.004;2022-11-20T04:45:55;101348.22;;;-1.39;64.96
71384;BME280;61466;52.166;5.004;2022-11-20T04:48:22;101357.06;;;-1.40;64.74
71384;BME280;61466;52.166;5.004;2022-11-20T04:50:48;101323.22;;;-1.58;64.66
71384;BME280;61466;52.166;5.004;2022-11-20T04:53:13;101317.81;;;-1.56;64.70
71384;BME280;61466;52.166;5.004;2022-11-20T04:55:39;101326.78;;;-1.51;64.85
71384;BME280;61466;52.166;5.004;2022-11-20T04:58:04;101288.88;;;-1.71;65.25
71384;BME280;61466;52.166;5.004;2022-11-20T05:00:30;101308.00;;;-1.62;65.47
71384;BME280;61466;52.166;5.004;2022-11-20T05:02:55;101297.41;;;-1.69;65.00
71384;BME280;61466;52.166;5.004;2022-11-20T05:05:21;101317.31;;;-1.52;65.46
71384;BME280;61466;52.166;5.004;2022-11-20T05:07:46;101316.00;;;-1.56;65.32
71384;BME280;61466;52.166;5.004;2022-11-20T05:10:12;101317.00;;;-1.57;65.40
71384;BME280;61466;52.166;5.004;2022-11-20T05:12:38;101325.34;;;-1.53;65.66
71384;BME280;61466;52.166;5.004;2022-11-20T05:15:04;101299.84;;;-1.68;64.92
71384;BME280;61466;52.166;5.004;2022-11-20T05:17:29;101318.75;;;-1.49;65.03
71384;BME280;61466;52.166;5.004;2022-11-20T05:19:55;101288.34;;;-1.67;65.41
71384;BME280;61466;52.166;5.004;2022-11-20T05:22:21;101307.28;;;-1.48;64.89
71384;BME280;61466;52.166;5.004;2022-11-20T05:24:46;101300.22;;;-1.48;64.78
71384;BME280;61466;52.166;5.004;2022-11-20T05:27:12;101286.94;;;-1.46;64.91
71384;BME280;61466;52.166;5.004;2022-11-20T05:29:38;101288.38;;;-1.43;65.17
71384;BME280;61466;52.166;5.004;2022-11-20T05:32:04;101277.94;;;-1.52;65.15
71384;BME280;61466;52.166;5.004;2022-11-20T05:34:31;101294.94;;;-1.39;65.02
71384;BME280;61466;52.166;5.004;2022-11-20T05:36:57;101290.53;;;-1.47;65.19
71384;BME280;61466;52.166;5.004;2022-11-20T05:39:23;101301.84;;;-1.47;65.12
71384;BME280;61466;52.166;5.004;2022-11-20T05:41:49;101318.72;;;-1.41;64.90
71384;BME280;61466;52.166;5.004;2022-11-20T05:44:34;101323.03;;;-1.48;65.29
71384;BME280;61466;52.166;5.004;2022-11-20T05:46:59;101335.84;;;-1.53;65.17
71384;BME280;61466;52.166;5.004;2022-11-20T05:49:25;101332.22;;;-1.52;65.07
71384;BME280;61466;52.166;5.004;2022-11-20T05:51:50;101319.81;;;-1.58;65.24
71384;BME280;61466;52.166;5.004;2022-11-20T05:54:15;101333.53;;;-1.48;64.89
71384;BME280;61466;52.166;5.004;2022-11-20T05:56:41;101298.22;;;-1.69;65.61
71384;BME280;61466;52.166;5.004;2022-11-20T05:59:07;101334.34;;;-1.48;64.98
71384;BME280;61466;52.166;5.004;2022-11-20T06:01:33;101324.03;;;-1.57;64.99
71384;BME280;61466;52.166;5.004;2022-11-20T06:04:01;101334.50;;;-1.49;65.29
71384;BME280;61466;52.166;5.004;2022-11-20T06:06:26;101344.84;;;-1.48;65.21
71384;BME280;61466;52.166;5.004;2022-11-20T06:08:52;101332.03;;;-1.51;65.39
71384;BME280;61466;52.166;5.004;2022-11-20T06:11:18;101326.50;;;-1.56;65.23
71384;BME280;61466;52.166;5.004;2022-11-20T06:13:45;101330.59;;;-1.53;65.01
71384;BME280;61466;52.166;5.004;2022-11-20T06:16:14;101328.31;;;-1.56;65.64
71384;BME280;61466;52.166;5.004;2022-11-20T06:18:39;101300.81;;;-1.69;65.63
71384;BME280;61466;52.166;5.004;2022-11-20T06:21:13;101314.72;;;-1.60;65.65
71384;BME280;61466;52.166;5.004;2022-11-20T06:23:39;101289.06;;;-1.81;65.75
71384;BME280;61466;52.166;5.004;2022-11-20T06:26:12;101296.91;;;-1.73;65.94
71384;BME280;61466;52.166;5.004;2022-11-20T06:28:38;101331.41;;;-1.53;65.95
71384;BME280;61466;52.166;5.004;2022-11-20T06:31:04;101303.94;;;-1.65;65.95
71384;BME280;61466;52.166;5.004;2022-11-20T06:33:30;101324.66;;;-1.47;66.00
71384;BME280;61466;52.166;5.004;2022-11-20T06:35:57;101315.81;;;-1.46;65.64
71384;BME280;61466;52.166;5.004;2022-11-20T06:38:24;101281.50;;;-1.68;66.01
71384;BME280;61466;52.166;5.004;2022-11-20T06:40:50;101320.03;;;-1.45;66.36
71384;BME280;61466;52.166;5.004;2022-11-20T06:43:16;101289.25;;;-1.51;65.89
71384;BME280;61466;52.166;5.004;2022-11-20T06:45:42;101296.25;;;-1.43;66.51
71384;BME280;61466;52.166;5.004;2022-11-20T06:48:09;101296.91;;;-1.41;66.18
71384;BME280;61466;52.166;5.004;2022-11-20T06:50:36;101304.94;;;-1.43;66.00
71384;BME280;61466;52.166;5.004;2022-11-20T06:53:02;101295.78;;;-1.47;66.08
71384;BME280;61466;52.166;5.004;2022-11-20T06:55:29;101288.28;;;-1.50;65.53
71384;BME280;61466;52.166;5.004;2022-11-20T06:57:54;101310.78;;;-1.33;65.73
71384;BME280;61466;52.166;5.004;2022-11-20T07:00:20;101287.28;;;-1.49;65.78
71384;BME280;61466;52.166;5.004;2022-11-20T07:02:46;101294.09;;;-1.40;66.23
71384;BME280;61466;52.166;5.004;2022-11-20T07:05:11;101292.09;;;-1.38;66.03
71384;BME280;61466;52.166;5.004;2022-11-20T07:07:37;101287.69;;;-1.37;66.05
71384;BME280;61466;52.166;5.004;2022-11-20T07:10:04;101298.25;;;-1.22;66.28
71384;BME280;61466;52.166;5.004;2022-11-20T07:12:29;101298.53;;;-1.17;66.03
71384;BME280;61466;52.166;5.004;2022-11-20T07:14:55;101298.81;;;-1.12;66.66
71384;BME280;61466;52.166;5.004;2022-11-20T07:17:21;101284.41;;;-1.16;66.00
71384;BME280;61466;52.166;5.004;2022-11-20T07:19:47;101289.50;;;-1.15;66.40
71384;BME280;61466;52.166;5.004;2022-11-20T07:22:13;101280.88;;;-1.24;66.12
71384;BME280;61466;52.166;5.004;2022-11-20T07:24:39;101281.13;;;-1.18;66.00
71384;BME280;61466;52.166;5.004;2022-11-20T07:27:04;101274.91;;;-1.17;65.93
71384;BME280;61466;52.166;5.004;2022-11-20T07:29:30;101268.00;;;-1.18;66.22
71384;BME280;61466;52.166;5.004;2022-11-20T07:31:56;101279.75;;;-1.06;66.02
71384;BME280;61466;52.166;5.004;2022-11-20T07:34:22;101275.66;;;-1.09;66.56
71384;BME280;61466;52.166;5.004;2022-11-20T07:36:48;101290.66;;;-0.94;66.28
71384;BME280;61466;52.166;5.004;2022-11-20T07:39:14;101291.56;;;-0.87;66.42
71384;BME280;61466;52.166;5.004;2022-11-20T07:41:39;101288.31;;;-0.89;66.63
71384;BME280;61466;52.166;5.004;2022-11-20T07:44:04;101292.84;;;-0.83;66.65
71384;BME280;61466;52.166;5.004;2022-11-20T07:46:30;101274.91;;;-0.65;65.67
71384;BME280;61466;52.166;5.004;2022-11-20T07:48:56;101294.69;;;-0.39;65.85
71384;BME280;61466;52.166;5.004;2022-11-20T07:51:22;101289.91;;;-0.35;65.52
71384;BME280;61466;52.166;5.004;2022-11-20T07:53:53;101294.63;;;-0.16;65.52
71384;BME280;61466;52.166;5.004;2022-11-20T07:59:25;101241.06;;;-0.30;65.69
71384;BME280;61466;52.166;5.004;2022-11-20T08:01:50;101288.06;;;0.10;65.88
71384;BME280;61466;52.166;5.004;2022-11-20T08:04:16;101285.50;;;0.16;65.78
71384;BME280;61466;52.166;5.004;2022-11-20T08:06:42;101272.81;;;0.20;65.27
71384;BME280;61466;52.166;5.004;2022-11-20T08:09:07;101276.78;;;0.31;65.37
71384;BME280;61466;52.166;5.004;2022-11-20T08:11:33;101268.50;;;0.34;66.09
71384;BME280;61466;52.166;5.004;2022-11-20T08:14:17;101263.50;;;0.39;65.18
71384;BME280;61466;52.166;5.004;2022-11-20T08:16:45;101283.88;;;0.52;64.86
71384;BME280;61466;52.166;5.004;2022-11-20T08:19:12;101280.31;;;0.59;65.16
71384;BME280;61466;52.166;5.004;2022-11-20T08:21:38;101265.88;;;0.55;65.35
71384;BME280;61466;52.166;5.004;2022-11-20T08:24:05;101276.97;;;0.72;65.35
71384;BME280;61466;52.166;5.004;2022-11-20T08:26:33;101271.72;;;0.72;65.71
71384;BME280;61466;52.166;5.004;2022-11-20T08:28:58;101253.47;;;0.71;65.33
71384;BME280;61466;52.166;5.004;2022-11-20T08:31:25;101278.97;;;0.92;65.22
71384;BME280;61466;52.166;5.004;2022-11-20T08:33:51;101274.97;;;0.96;65.38
71384;BME280;61466;52.166;5.004;2022-11-20T08:36:18;101259.72;;;0.91;65.80
71384;BME280;61466;52.166;5.004;2022-11-20T08:38:52;101282.91;;;1.02;66.23
71384;BME280;61466;52.166;5.004;2022-11-20T08:41:18;101283.38;;;1.06;65.88
71384;BME280;61466;52.166;5.004;2022-11-20T08:43:55;101271.00;;;1.07;65.80
71384;BME280;61466;52.166;5.004;2022-11-20T08:46:23;101267.38;;;1.08;66.09
71384;BME280;61466;52.166;5.004;2022-11-20T08:48:48;101274.94;;;1.17;65.67
71384;BME280;61466;52.166;5.004;2022-11-20T08:51:15;101284.53;;;1.25;65.67
71384;BME280;61466;52.166;5.004;2022-11-20T08:53:40;101268.91;;;1.23;65.27
71384;BME280;61466;52.166;5.004;2022-11-20T08:56:06;101271.41;;;1.32;65.38
71384;BME280;61466;52.166;5.004;2022-11-20T08:58:32;101272.25;;;1.39;65.60
71384;BME280;61466;52.166;5.004;2022-11-20T09:00:59;101267.81;;;1.46;65.49
71384;BME280;61466;52.166;5.004;2022-11-20T09:03:24;101269.06;;;1.50;65.42
71384;BME280;61466;52.166;5.004;2022-11-20T09:05:57;101233.91;;;1.36;65.39
71384;BME280;61466;52.166;5.004;2022-11-20T09:08:23;101252.91;;;1.60;65.10
71384;BME280;61466;52.166;5.004;2022-11-20T09:10:52;101250.88;;;1.62;65.67
71384;BME280;61466;52.166;5.004;2022-11-20T09:13:17;101250.72;;;1.70;65.19
71384;BME280;61466;52.166;5.004;2022-11-20T09:15:43;101257.03;;;1.76;65.46
71384;BME280;61466;52.166;5.004;2022-11-20T09:18:08;101243.22;;;1.74;65.33
71384;BME280;61466;52.166;5.004;2022-11-20T09:20:33;101249.16;;;1.82;64.46
71384;BME280;61466;52.166;5.004;2022-11-20T09:22:59;101226.19;;;1.76;65.02
71384;BME280;61466;52.166;5.004;2022-11-20T09:25:25;101229.69;;;1.83;64.63
71384;BME280;61466;52.166;5.004;2022-11-20T09:27:56;101235.41;;;1.94;65.06
71384;BME280;61466;52.166;5.004;2022-11-20T09:30:22;101208.16;;;1.80;64.76
71384;BME280;61466;52.166;5.004;2022-11-20T09:32:47;101230.38;;;2.05;64.25
71384;BME280;61466;52.166;5.004;2022-11-20T09:35:13;101206.59;;;1.99;65.12
71384;BME280;61466;52.166;5.004;2022-11-20T09:37:40;101184.06;;;1.96;64.54
71384;BME280;61466;52.166;5.004;2022-11-20T09:40:20;101215.78;;;2.23;65.26
71384;BME280;61466;52.166;5.004;2022-11-20T09:43:03;101209.31;;;2.32;65.26
71384;BME280;61466;52.166;5.004;2022-11-20T09:48:34;101219.31;;;2.43;64.84
71384;BME280;61466;52.166;5.004;2022-11-20T09:51:37;101195.31;;;2.38;64.53
71384;BME280;61466;52.166;5.004;2022-11-20T09:56:39;101193.50;;;2.52;64.53
71384;BME280;61466;52.166;5.004;2022-11-20T09:59:23;101203.47;;;2.63;64.98
71384;BME280;61466;52.166;5.004;2022-11-20T10:01:52;101193.09;;;2.62;64.44
71384;BME280;61466;52.166;5.004;2022-11-20T10:04:20;101187.81;;;2.62;64.48
71384;BME280;61466;52.166;5.004;2022-11-20T10:07:11;101196.34;;;2.71;64.18
71384;BME280;61466;52.166;5.004;2022-11-20T10:09:44;101192.69;;;2.78;64.32
71384;BME280;61466;52.166;5.004;2022-11-20T10:12:41;101171.38;;;2.73;64.04
71384;BME280;61466;52.166;5.004;2022-11-20T10:15:31;101184.56;;;2.86;63.92
71384;BME280;61466;52.166;5.004;2022-11-20T10:21:22;101167.28;;;2.97;63.96
71384;BME280;61466;52.166;5.004;2022-11-20T10:26:56;101150.59;;;3.10;64.07
71384;BME280;61466;52.166;5.004;2022-11-20T10:29:35;101138.38;;;3.09;64.28
71384;BME280;61466;52.166;5.004;2022-11-20T10:32:11;101132.69;;;3.12;63.53
71384;BME280;61466;52.166;5.004;2022-11-20T10:34:59;101136.72;;;3.21;63.58
71384;BME280;61466;52.166;5.004;2022-11-20T10:37:29;101127.75;;;3.22;63.51
71384;BME280;61466;52.166;5.004;2022-11-20T10:40:20;101121.00;;;3.33;63.77
71384;BME280;61466;52.166;5.004;2022-11-20T10:42:53;101112.03;;;3.41;63.60
71384;BME280;61466;52.166;5.004;2022-11-20T10:47:54;101091.69;;;3.41;63.80
71384;BME280;61466;52.166;5.004;2022-11-20T10:50:22;101108.72;;;3.52;63.65
71384;BME280;61466;52.166;5.004;2022-11-20T10:53:31;101091.59;;;3.55;63.96
71384;BME280;61466;52.166;5.004;2022-11-20T11:01:52;101036.91;;;3.55;63.62
71384;BME280;61466;52.166;5.004;2022-11-20T11:04:32;101063.00;;;3.77;63.67
71384;BME280;61466;52.166;5.004;2022-11-20T11:07:23;101065.22;;;3.80;63.74
71384;BME280;61466;52.166;5.004;2022-11-20T11:09:52;101059.13;;;3.79;63.69
71384;BME280;61466;52.166;5.004;2022-11-20T11:12:21;101047.94;;;3.77;63.93
71384;BME280;61466;52.166;5.004;2022-11-20T11:14:53;101054.78;;;3.85;63.82
71384;BME280;61466;52.166;5.004;2022-11-20T11:17:25;101025.56;;;3.73;63.81
71384;BME280;61466;52.166;5.004;2022-11-20T11:20:17;101034.81;;;3.89;63.97
71384;BME280;61466;52.166;5.004;2022-11-20T11:22:49;101025.66;;;3.92;63.97
71384;BME280;61466;52.166;5.004;2022-11-20T11:25:36;101022.56;;;3.95;64.14
71384;BME280;61466;52.166;5.004;2022-11-20T11:28:03;101010.53;;;3.99;63.95
71384;BME280;61466;52.166;5.004;2022-11-20T11:30:40;100994.53;;;3.87;64.03
71384;BME280;61466;52.166;5.004;2022-11-20T11:33:17;100995.91;;;3.96;64.53
71384;BME280;61466;52.166;5.004;2022-11-20T11:35:47;100993.00;;;3.98;64.34
71384;BME280;61466;52.166;5.004;2022-11-20T11:38:16;101003.13;;;4.07;64.60
71384;BME280;61466;52.166;5.004;2022-11-20T11:40:46;101008.22;;;4.09;64.53
71384;BME280;61466;52.166;5.004;2022-11-20T11:43:31;100994.38;;;4.07;64.77
71384;BME280;61466;52.166;5.004;2022-11-20T11:49:13;100970.22;;;3.97;65.90
71384;BME280;61466;52.166;5.004;2022-11-20T11:52:14;100990.47;;;4.09;65.74
71384;BME280;61466;52.166;5.004;2022-11-20T11:54:57;100982.09;;;4.13;65.30
71384;BME280;61466;52.166;5.004;2022-11-20T12:00:09;100972.69;;;4.17;65.70
71384;BME280;61466;52.166;5.004;2022-11-20T12:02:38;100968.97;;;4.24;65.49
71384;BME280;61466;52.166;5.004;2022-11-20T12:07:51;100944.66;;;4.27;65.68
71384;BME280;61466;52.166;5.004;2022-11-20T12:10:23;100950.50;;;4.36;65.66
71384;BME280;61466;52.166;5.004;2022-11-20T12:12:58;100946.06;;;4.30;66.98
71384;BME280;61466;52.166;5.004;2022-11-20T12:15:30;100937.91;;;4.31;65.88
71384;BME280;61466;52.166;5.004;2022-11-20T12:17:56;100918.44;;;4.26;65.82
71384;BME280;61466;52.166;5.004;2022-11-20T12:20:26;100927.69;;;4.35;66.17
71384;BME280;61466;52.166;5.004;2022-11-20T12:23:22;100923.88;;;4.31;67.12
71384;BME280;61466;52.166;5.004;2022-11-20T12:25:56;100922.59;;;4.34;66.01
71384;BME280;61466;52.166;5.004;2022-11-20T12:28:37;100907.97;;;4.31;66.44
71384;BME280;61466;52.166;5.004;2022-11-20T12:31:20;100898.84;;;4.27;66.45
71384;BME280;61466;52.166;5.004;2022-11-20T12:33:58;100881.06;;;4.16;67.17
71384;BME280;61466;52.166;5.004;2022-11-20T12:36:53;100888.56;;;4.19;68.32
71384;BME280;61466;52.166;5.004;2022-11-20T12:39:38;100884.66;;;4.21;66.44
71384;BME280;61466;52.166;5.004;2022-11-20T12:46:02;100877.66;;;4.27;67.00
71384;BME280;61466;52.166;5.004;2022-11-20T12:48:42;100867.88;;;4.27;67.14
71384;BME280;61466;52.166;5.004;2022-11-20T13:00:14;100845.72;;;4.40;67.88
71384;BME280;61466;52.166;5.004;2022-11-20T13:05:35;100842.06;;;4.41;67.90
71384;BME280;61466;52.166;5.004;2022-11-20T13:08:11;100832.25;;;4.42;68.51
71384;BME280;61466;52.166;5.004;2022-11-20T13:10:57;100832.69;;;4.39;67.86
71384;BME280;61466;52.166;5.004;2022-11-20T13:13:33;100836.31;;;4.44;68.14
71384;BME280;61466;52.166;5.004;2022-11-20T13:16:33;100838.38;;;4.42;68.73
71384;BME280;61466;52.166;5.004;2022-11-20T13:19:03;100835.81;;;4.36;68.47
71384;BME280;61466;52.166;5.004;2022-11-20T13:21:38;100852.19;;;4.44;68.20
71384;BME280;61466;52.166;5.004;2022-11-20T13:24:06;100831.09;;;4.38;68.05
71384;BME280;61466;52.166;5.004;2022-11-20T13:26:32;100823.66;;;4.46;68.26
71384;BME280;61466;52.166;5.004;2022-11-20T13:29:15;100821.22;;;4.45;69.60
71384;BME280;61466;52.166;5.004;2022-11-20T13:31:43;100800.69;;;4.40;69.29
71384;BME280;61466;52.166;5.004;2022-11-20T13:34:14;100814.91;;;4.46;68.81
71384;BME280;61466;52.166;5.004;2022-11-20T13:36:55;100803.50;;;4.45;68.59
71384;BME280;61466;52.166;5.004;2022-11-20T13:39:47;100796.13;;;4.47;68.89
71384;BME280;61466;52.166;5.004;2022-11-20T13:44:43;100798.41;;;4.44;68.44
71384;BME280;61466;52.166;5.004;2022-11-20T13:47:35;100808.25;;;4.55;68.95
71384;BME280;61466;52.166;5.004;2022-11-20T13:50:03;100780.47;;;4.46;68.73
71384;BME280;61466;52.166;5.004;2022-11-20T14:01:16;100734.28;;;4.54;69.94
71384;BME280;61466;52.166;5.004;2022-11-20T14:03:42;100725.44;;;4.60;69.68
71384;BME280;61466;52.166;5.004;2022-11-20T14:06:19;100734.28;;;4.54;69.53
71384;BME280;61466;52.166;5.004;2022-11-20T14:08:51;100740.75;;;4.58;69.55
71384;BME280;61466;52.166;5.004;2022-11-20T14:11:19;100713.44;;;4.45;69.53
71384;BME280;61466;52.166;5.004;2022-11-20T14:14:10;100723.47;;;4.55;69.65